sensor_id;sensor_type;location;lat;lon;timestamp;temperature;humidity
2639;DHT22;1329;51.384;7.122;2022-09-17T00:01:28;13.70;99.90
2639;DHT22;1329;51.384;7.122;2022-09-17T00:03:58;13.70;99.90
2639;DHT22;1329;51.384;7.122;2022-09-17T00:06:29;13.70;99.90
2639;DHT22;1329;51.384;7.122;2022-09-17T00:08:58;13.60;99.90
2639;DHT22;1329;51.384;7.122;2022-09-17T00:11:28;13.60;99.90
2639;DHT22;1329;51.384;7.122;2022-09-17T00:13:58;13.60;99.90
2639;DHT22;1329;51.384;7.122;2022-09-17T00:16:28;13.60;99.90
2639;DHT22;1329;51.384;7.122;2022-09-17T00:18:58;13.60;99.90
2639;DHT22;1329;51.384;7.122;2022-09-17T00:21:27;13.60;99.90
2639;DHT22;1329;51.384;7.122;2022-09-17T00:23:56;13.60;99.90
2639;DHT22;1329;51.384;7.122;2022-09-17T00:26:27;13.60;99.90
2639;DHT22;1329;51.384;7.122;2022-09-17T00:28:56;13.60;99.90
2639;DHT22;1329;51.384;7.122;2022-09-17T00:31:24;13.60;99.90
2639;DHT22;1329;51.384;7.122;2022-09-17T00:33:52;13.60;99.90
2639;DHT22;1329;51.384;7.122;2022-09-17T00:36:21;13.60;99.90
2639;DHT22;1329;51.384;7.122;2022-09-17T00:38:49;13.60;99.90
2639;DHT22;1329;51.384;7.122;2022-09-17T00:41:19;13.60;99.90
2639;DHT22;1329;51.384;7.122;2022-09-17T00:43:49;13.50;99.90
2639;DHT22;1329;51.384;7.122;2022-09-17T00:46:24;13.60;99.90
2639;DHT22;1329;51.384;7.122;2022-09-17T00:48:58;13.60;99.90
2639;DHT22;1329;51.384;7.122;2022-09-17T00:51:29;13.60;99.90
2639;DHT22;1329;51.384;7.122;2022-09-17T00:54:00;13.60;99.90
2639;DHT22;1329;51.384;7.122;2022-09-17T00:56:32;13.60;99.90
2639;DHT22;1329;51.384;7.122;2022-09-17T00:59:01;13.60;99.90
2639;DHT22;1329;51.384;7.122;2022-09-17T01:01:29;13.60;99.90
2639;DHT22;1329;51.384;7.122;2022-09-17T01:03:57;13.60;99.90
2639;DHT22;1329;51.384;7.122;2022-09-17T01:06:31;13.60;99.90
2639;DHT22;1329;51.384;7.122;2022-09-17T01:09:20;13.60;99.90
2639;DHT22;1329;51.384;7.122;2022-09-17T01:12:14;13.60;99.90
2639;DHT22;1329;51.384;7.122;2022-09-17T01:17:57;13.60;99.90
2639;DHT22;1329;51.384;7.122;2022-09-17T01:24:20;13.50;99.90
2639;DHT22;1329;51.384;7.122;2022-09-17T01:27:50;13.60;99.90
2639;DHT22;1329;51.384;7.122;2022-09-17T01:31:05;13.60;99.90
2639;DHT22;1329;51.384;7.122;2022-09-17T01:33:52;13.60;99.90
2639;DHT22;1329;51.384;7.122;2022-09-17T01:36:38;13.60;99.90
2639;DHT22;1329;51.384;7.122;2022-09-17T01:39:18;13.60;99.90
2639;DHT22;1329;51.384;7.122;2022-09-17T01:41:55;13.50;99.90
2639;DHT22;1329;51.384;7.122;2022-09-17T01:44:28;13.60;99.90
2639;DHT22;1329;51.384;7.122;2022-09-17T01:47:05;13.60;99.90
2639;DHT22;1329;51.384;7.122;2022-09-17T01:49:37;13.60;99.90
2639;DHT22;1329;51.384;7.122;2022-09-17T01:52:06;13.50;99.90
2639;DHT22;1329;51.384;7.122;2022-09-17T01:54:38;13.50;99.90
2639;DHT22;1329;51.384;7.122;2022-09-17T01:57:13;13.50;99.90
2639;DHT22;1329;51.384;7.122;2022-09-17T01:59:45;13.40;99.90
2639;DHT22;1329;51.384;7.122;2022-09-17T02:02:22;13.50;99.90
2639;DHT22;1329;51.384;7.122;2022-09-17T02:04:58;13.40;99.90
2639;DHT22;1329;51.384;7.122;2022-09-17T02:07:30;13.50;99.90
2639;DHT22;1329;51.384;7.122;2022-09-17T02:10:02;13.40;99.90
2639;DHT22;1329;51.384;7.122;2022-09-17T02:12:37;13.40;99.90
2639;DHT22;1329;51.384;7.122;2022-09-17T02:15:10;13.40;99.90
2639;DHT22;1329;51.384;7.122;2022-09-17T02:17:47;13.40;99.90
2639;DHT22;1329;51.384;7.122;2022-09-17T02:20:16;13.40;99.90
2639;DHT22;1329;51.384;7.122;2022-09-17T02:22:48;13.40;99.90
2639;DHT22;1329;51.384;7.122;2022-09-17T02:25:22;13.40;99.90
2639;DHT22;1329;51.384;7.122;2022-09-17T04:23:25;10.90;99.90
2639;DHT22;1329;51.384;7.122;2022-09-17T04:25:54;12.10;99.90
2639;DHT22;1329;51.384;7.122;2022-09-17T04:28:22;12.30;99.90
2639;DHT22;1329;51.384;7.122;2022-09-17T04:30:49;12.40;99.90
2639;DHT22;1329;51.384;7.122;2022-09-17T04:33:17;12.60;99.90
2639;DHT22;1329;51.384;7.122;2022-09-17T04:35:44;12.70;99.90
2639;DHT22;1329;51.384;7.122;2022-09-17T04:38:12;12.80;99.90
2639;DHT22;1329;51.384;7.122;2022-09-17T04:40:44;12.80;99.90
2639;DHT22;1329;51.384;7.122;2022-09-17T04:43:12;12.80;99.90
2639;DHT22;1329;51.384;7.122;2022-09-17T04:45:40;12.90;99.90
2639;DHT22;1329;51.384;7.122;2022-09-17T04:48:07;12.90;99.90
2639;DHT22;1329;51.384;7.122;2022-09-17T04:50:36;13.00;99.90
2639;DHT22;1329;51.384;7.122;2022-09-17T04:53:04;13.10;99.90
2639;DHT22;1329;51.384;7.122;2022-09-17T04:55:31;13.10;99.90
2639;DHT22;1329;51.384;7.122;2022-09-17T04:58:00;13.10;99.90
2639;DHT22;1329;51.384;7.122;2022-09-17T05:00:27;13.20;99.90
2639;DHT22;1329;51.384;7.122;2022-09-17T05:02:54;13.20;99.90
2639;DHT22;1329;51.384;7.122;2022-09-17T05:05:25;13.20;99.90
2639;DHT22;1329;51.384;7.122;2022-09-17T05:07:52;13.30;99.90
2639;DHT22;1329;51.384;7.122;2022-09-17T05:10:21;13.30;99.90
2639;DHT22;1329;51.384;7.122;2022-09-17T05:12:49;13.30;99.90
2639;DHT22;1329;51.384;7.122;2022-09-17T05:15:19;13.30;99.90
2639;DHT22;1329;51.384;7.122;2022-09-17T05:17:48;13.30;99.90
2639;DHT22;1329;51.384;7.122;2022-09-17T05:20:15;13.30;99.90
2639;DHT22;1329;51.384;7.122;2022-09-17T05:22:44;13.30;99.90
2639;DHT22;1329;51.384;7.122;2022-09-17T05:25:16;13.30;99.90
2639;DHT22;1329;51.384;7.122;2022-09-17T05:27:44;13.30;99.90
2639;DHT22;1329;51.384;7.122;2022-09-17T05:30:12;13.30;99.90
2639;DHT22;1329;51.384;7.122;2022-09-17T05:32:40;13.30;99.90
2639;DHT22;1329;51.384;7.122;2022-09-17T05:35:08;13.30;99.90
2639;DHT22;1329;51.384;7.122;2022-09-17T05:37:36;13.30;99.90
2639;DHT22;1329;51.384;7.122;2022-09-17T05:40:05;13.30;99.90
2639;DHT22;1329;51.384;7.122;2022-09-17T05:42:34;13.30;99.90
2639;DHT22;1329;51.384;7.122;2022-09-17T05:45:01;13.30;99.90
2639;DHT22;1329;51.384;7.122;2022-09-17T05:47:28;13.30;99.90
2639;DHT22;1329;51.384;7.122;2022-09-17T05:49:57;13.30;99.90
2639;DHT22;1329;51.384;7.122;2022-09-17T05:52:28;13.30;99.90
2639;DHT22;1329;51.384;7.122;2022-09-17T05:54:55;13.30;99.90
2639;DHT22;1329;51.384;7.122;2022-09-17T05:57:25;13.30;99.90
2639;DHT22;1329;51.384;7.122;2022-09-17T05:59:55;13.40;99.90
2639;DHT22;1329;51.384;7.122;2022-09-17T06:02:22;13.40;99.90
2639;DHT22;1329;51.384;7.122;2022-09-17T06:04:50;13.40;99.90
2639;DHT22;1329;51.384;7.122;2022-09-17T06:07:18;13.40;99.90
2639;DHT22;1329;51.384;7.122;2022-09-17T06:09:45;13.40;99.90
2639;DHT22;1329;51.384;7.122;2022-09-17T06:12:13;13.40;99.90
2639;DHT22;1329;51.384;7.122;2022-09-17T06:14:40;13.40;99.90
2639;DHT22;1329;51.384;7.122;2022-09-17T06:17:07;13.40;99.90
2639;DHT22;1329;51.384;7.122;2022-09-17T06:19:34;13.40;99.90
2639;DHT22;1329;51.384;7.122;2022-09-17T06:22:02;13.40;99.90
2639;DHT22;1329;51.384;7.122;2022-09-17T06:24:31;13.40;99.90
2639;DHT22;1329;51.384;7.122;2022-09-17T06:26:59;13.40;99.90
2639;DHT22;1329;51.384;7.122;2022-09-17T06:29:28;13.40;99.90
2639;DHT22;1329;51.384;7.122;2022-09-17T06:31:58;13.40;99.90
2639;DHT22;1329;51.384;7.122;2022-09-17T06:34:27;13.30;99.90
2639;DHT22;1329;51.384;7.122;2022-09-17T06:36:54;13.30;99.90
2639;DHT22;1329;51.384;7.122;2022-09-17T06:39:23;13.30;99.90
2639;DHT22;1329;51.384;7.122;2022-09-17T06:41:51;13.30;99.90
2639;DHT22;1329;51.384;7.122;2022-09-17T06:44:19;13.30;99.90
2639;DHT22;1329;51.384;7.122;2022-09-17T06:46:48;13.30;99.90
2639;DHT22;1329;51.384;7.122;2022-09-17T06:49:17;13.30;99.90
2639;DHT22;1329;51.384;7.122;2022-09-17T06:51:45;13.20;99.90
2639;DHT22;1329;51.384;7.122;2022-09-17T06:54:12;13.20;99.90
2639;DHT22;1329;51.384;7.122;2022-09-17T06:56:39;13.20;99.90
2639;DHT22;1329;51.384;7.122;2022-09-17T06:59:08;13.20;99.90
2639;DHT22;1329;51.384;7.122;2022-09-17T07:01:35;13.20;99.90
2639;DHT22;1329;51.384;7.122;2022-09-17T07:04:03;13.20;99.90
2639;DHT22;1329;51.384;7.122;2022-09-17T07:06:30;13.30;99.90
2639;DHT22;1329;51.384;7.122;2022-09-17T07:08:58;13.30;99.90
2639;DHT22;1329;51.384;7.122;2022-09-17T07:11:25;13.30;99.90
2639;DHT22;1329;51.384;7.122;2022-09-17T07:13:54;13.30;99.90
2639;DHT22;1329;51.384;7.122;2022-09-17T07:16:33;13.40;99.90
2639;DHT22;1329;51.384;7.122;2022-09-17T07:19:23;13.40;99.90
2639;DHT22;1329;51.384;7.122;2022-09-17T07:21:59;13.40;99.90
2639;DHT22;1329;51.384;7.122;2022-09-17T07:24:50;13.40;99.90
2639;DHT22;1329;51.384;7.122;2022-09-17T07:27:41;13.40;99.90
2639;DHT22;1329;51.384;7.122;2022-09-17T07:30:19;13.40;99.90
2639;DHT22;1329;51.384;7.122;2022-09-17T07:32:53;13.50;99.90
2639;DHT22;1329;51.384;7.122;2022-09-17T07:35:36;13.40;99.90
2639;DHT22;1329;51.384;7.122;2022-09-17T07:38:24;13.50;99.90
2639;DHT22;1329;51.384;7.122;2022-09-17T07:41:02;13.40;99.90
2639;DHT22;1329;51.384;7.122;2022-09-17T07:44:32;13.40;99.90
2639;DHT22;1329;51.384;7.122;2022-09-17T07:47:14;13.60;99.90
2639;DHT22;1329;51.384;7.122;2022-09-17T07:50:00;13.60;99.90
2639;DHT22;1329;51.384;7.122;2022-09-17T07:52:45;13.70;99.90
2639;DHT22;1329;51.384;7.122;2022-09-17T07:55:39;13.70;99.90
2639;DHT22;1329;51.384;7.122;2022-09-17T07:58:29;13.80;99.90
2639;DHT22;1329;51.384;7.122;2022-09-17T08:01:13;13.80;99.90
2639;DHT22;1329;51.384;7.122;2022-09-17T08:04:11;13.90;99.90
2639;DHT22;1329;51.384;7.122;2022-09-17T08:07:02;13.90;99.90
2639;DHT22;1329;51.384;7.122;2022-09-17T08:09:47;13.90;99.90
2639;DHT22;1329;51.384;7.122;2022-09-17T08:12:40;13.90;99.90
2639;DHT22;1329;51.384;7.122;2022-09-17T08:15:19;13.90;99.90
2639;DHT22;1329;51.384;7.122;2022-09-17T08:17:54;13.90;99.90
2639;DHT22;1329;51.384;7.122;2022-09-17T08:20:34;13.90;99.90
2639;DHT22;1329;51.384;7.122;2022-09-17T08:23:20;14.00;99.90
2639;DHT22;1329;51.384;7.122;2022-09-17T08:25:59;14.00;99.90
2639;DHT22;1329;51.384;7.122;2022-09-17T08:28:31;14.00;99.90
2639;DHT22;1329;51.384;7.122;2022-09-17T08:31:10;14.00;99.90
2639;DHT22;1329;51.384;7.122;2022-09-17T08:33:43;14.10;99.90
2639;DHT22;1329;51.384;7.122;2022-09-17T08:36:15;14.10;99.90
2639;DHT22;1329;51.384;7.122;2022-09-17T08:39:08;14.20;99.90
2639;DHT22;1329;51.384;7.122;2022-09-17T08:41:56;14.20;99.90
2639;DHT22;1329;51.384;7.122;2022-09-17T08:44:40;14.20;99.90
2639;DHT22;1329;51.384;7.122;2022-09-17T08:47:19;14.30;99.90
2639;DHT22;1329;51.384;7.122;2022-09-17T08:50:01;14.40;99.90
2639;DHT22;1329;51.384;7.122;2022-09-17T08:52:50;14.50;99.90
2639;DHT22;1329;51.384;7.122;2022-09-17T08:55:50;14.60;99.90
2639;DHT22;1329;51.384;7.122;2022-09-17T08:58:40;14.70;99.90
2639;DHT22;1329;51.384;7.122;2022-09-17T09:01:31;14.70;99.90
2639;DHT22;1329;51.384;7.122;2022-09-17T09:07:36;14.80;99.90
2639;DHT22;1329;51.384;7.122;2022-09-17T09:10:17;14.90;99.90
2639;DHT22;1329;51.384;7.122;2022-09-17T09:12:50;14.90;99.90
2639;DHT22;1329;51.384;7.122;2022-09-17T09:15:32;14.90;99.90
2639;DHT22;1329;51.384;7.122;2022-09-17T09:18:15;15.00;99.90
2639;DHT22;1329;51.384;7.122;2022-09-17T09:20:49;15.00;99.90
2639;DHT22;1329;51.384;7.122;2022-09-17T09:23:25;15.10;99.90
2639;DHT22;1329;51.384;7.122;2022-09-17T09:26:04;15.20;99.90
2639;DHT22;1329;51.384;7.122;2022-09-17T09:29:09;15.20;99.90
2639;DHT22;1329;51.384;7.122;2022-09-17T09:31:50;15.30;99.90
2639;DHT22;1329;51.384;7.122;2022-09-17T09:34:36;15.40;99.90
2639;DHT22;1329;51.384;7.122;2022-09-17T09:37:11;15.40;99.90
2639;DHT22;1329;51.384;7.122;2022-09-17T09:39:44;15.60;99.90
2639;DHT22;1329;51.384;7.122;2022-09-17T09:42:24;15.60;99.90
2639;DHT22;1329;51.384;7.122;2022-09-17T09:44:59;15.70;99.90
2639;DHT22;1329;51.384;7.122;2022-09-17T09:47:38;15.80;99.90
2639;DHT22;1329;51.384;7.122;2022-09-17T09:50:27;15.80;99.90
2639;DHT22;1329;51.384;7.122;2022-09-17T09:53:11;15.80;99.90
2639;DHT22;1329;51.384;7.122;2022-09-17T09:56:04;15.80;99.90
2639;DHT22;1329;51.384;7.122;2022-09-17T09:58:37;15.80;99.90
2639;DHT22;1329;51.384;7.122;2022-09-17T10:01:12;15.80;99.90
2639;DHT22;1329;51.384;7.122;2022-09-17T10:03:42;15.90;99.90
2639;DHT22;1329;51.384;7.122;2022-09-17T10:06:13;16.00;99.90
2639;DHT22;1329;51.384;7.122;2022-09-17T10:08:41;16.00;99.90
2639;DHT22;1329;51.384;7.122;2022-09-17T10:11:37;16.00;99.90
2639;DHT22;1329;51.384;7.122;2022-09-17T10:14:20;16.00;99.90
2639;DHT22;1329;51.384;7.122;2022-09-17T10:17:10;16.00;99.90
2639;DHT22;1329;51.384;7.122;2022-09-17T10:19:43;16.00;99.90
2639;DHT22;1329;51.384;7.122;2022-09-17T10:22:19;15.90;99.90
2639;DHT22;1329;51.384;7.122;2022-09-17T10:24:54;15.80;99.90
2639;DHT22;1329;51.384;7.122;2022-09-17T10:27:25;15.70;99.90
2639;DHT22;1329;51.384;7.122;2022-09-17T10:30:12;15.60;99.90
2639;DHT22;1329;51.384;7.122;2022-09-17T10:33:17;15.50;99.90
2639;DHT22;1329;51.384;7.122;2022-09-17T10:36:02;15.50;99.90
2639;DHT22;1329;51.384;7.122;2022-09-17T10:38:37;15.40;99.90
2639;DHT22;1329;51.384;7.122;2022-09-17T10:41:17;15.40;99.90
2639;DHT22;1329;51.384;7.122;2022-09-17T10:43:47;15.40;99.90
2639;DHT22;1329;51.384;7.122;2022-09-17T10:46:25;15.40;99.90
2639;DHT22;1329;51.384;7.122;2022-09-17T10:49:08;15.50;99.90
2639;DHT22;1329;51.384;7.122;2022-09-17T10:51:39;15.50;99.90
2639;DHT22;1329;51.384;7.122;2022-09-17T10:54:35;15.60;99.90
2639;DHT22;1329;51.384;7.122;2022-09-17T10:58:02;15.70;99.90
2639;DHT22;1329;51.384;7.122;2022-09-17T11:00:48;15.70;99.90
2639;DHT22;1329;51.384;7.122;2022-09-17T11:06:59;15.70;99.90
2639;DHT22;1329;51.384;7.122;2022-09-17T11:09:54;15.60;99.90
2639;DHT22;1329;51.384;7.122;2022-09-17T11:12:40;15.60;99.90
2639;DHT22;1329;51.384;7.122;2022-09-17T11:15:30;15.50;99.90
2639;DHT22;1329;51.384;7.122;2022-09-17T11:18:34;15.40;99.90
2639;DHT22;1329;51.384;7.122;2022-09-17T11:21:39;15.30;99.90
2639;DHT22;1329;51.384;7.122;2022-09-17T11:28:03;14.90;99.90
2639;DHT22;1329;51.384;7.122;2022-09-17T11:31:03;14.50;99.90
2639;DHT22;1329;51.384;7.122;2022-09-17T11:34:17;14.20;99.90
2639;DHT22;1329;51.384;7.122;2022-09-17T11:37:07;13.90;99.90
2639;DHT22;1329;51.384;7.122;2022-09-17T11:40:12;13.60;99.90
2639;DHT22;1329;51.384;7.122;2022-09-17T11:43:18;13.40;99.90
2639;DHT22;1329;51.384;7.122;2022-09-17T11:46:12;13.30;99.90
2639;DHT22;1329;51.384;7.122;2022-09-17T11:49:02;13.20;99.90
2639;DHT22;1329;51.384;7.122;2022-09-17T11:51:49;13.20;99.90
2639;DHT22;1329;51.384;7.122;2022-09-17T11:54:52;13.30;99.90
2639;DHT22;1329;51.384;7.122;2022-09-17T12:00:57;13.20;99.90
2639;DHT22;1329;51.384;7.122;2022-09-17T12:03:43;13.20;99.90
2639;DHT22;1329;51.384;7.122;2022-09-17T12:06:39;13.20;99.90
2639;DHT22;1329;51.384;7.122;2022-09-17T12:09:43;13.30;99.90
2639;DHT22;1329;51.384;7.122;2022-09-17T12:12:54;13.40;99.90
2639;DHT22;1329;51.384;7.122;2022-09-17T12:15:44;13.40;99.90
2639;DHT22;1329;51.384;7.122;2022-09-17T12:18:49;13.40;99.90
2639;DHT22;1329;51.384;7.122;2022-09-17T12:21:34;13.40;99.90
2639;DHT22;1329;51.384;7.122;2022-09-17T12:24:19;13.50;99.90
2639;DHT22;1329;51.384;7.122;2022-09-17T12:27:32;13.50;99.90
2639;DHT22;1329;51.384;7.122;2022-09-17T12:30:18;13.60;99.90
2639;DHT22;1329;51.384;7.122;2022-09-17T12:33:08;13.70;99.90
2639;DHT22;1329;51.384;7.122;2022-09-17T12:36:34;13.70;99.90
2639;DHT22;1329;51.384;7.122;2022-09-17T12:39:57;13.70;99.90
2639;DHT22;1329;51.384;7.122;2022-09-17T12:42:56;13.70;99.90
2639;DHT22;1329;51.384;7.122;2022-09-17T12:46:22;13.70;99.90
2639;DHT22;1329;51.384;7.122;2022-09-17T12:52:26;13.60;99.90
2639;DHT22;1329;51.384;7.122;2022-09-17T12:55:20;13.70;99.90
2639;DHT22;1329;51.384;7.122;2022-09-17T12:58:38;13.70;99.90
2639;DHT22;1329;51.384;7.122;2022-09-17T13:01:42;13.80;99.90
2639;DHT22;1329;51.384;7.122;2022-09-17T13:05:09;13.80;99.90
2639;DHT22;1329;51.384;7.122;2022-09-17T13:08:37;14.00;99.90
2639;DHT22;1329;51.384;7.122;2022-09-17T13:11:36;14.10;99.90
2639;DHT22;1329;51.384;7.122;2022-09-17T13:15:14;14.20;99.90
2639;DHT22;1329;51.384;7.122;2022-09-17T13:17:57;14.30;99.90
2639;DHT22;1329;51.384;7.122;2022-09-17T13:20:53;14.40;99.90
2639;DHT22;1329;51.384;7.122;2022-09-17T13:23:34;14.50;99.90
2639;DHT22;1329;51.384;7.122;2022-09-17T13:26:08;14.60;99.90
2639;DHT22;1329;51.384;7.122;2022-09-17T13:28:49;14.60;99.90
2639;DHT22;1329;51.384;7.122;2022-09-17T13:31:44;14.70;99.90
2639;DHT22;1329;51.384;7.122;2022-09-17T13:34:31;14.80;99.90
2639;DHT22;1329;51.384;7.122;2022-09-17T13:37:03;15.00;99.90
2639;DHT22;1329;51.384;7.122;2022-09-17T13:39:43;15.10;99.90
2639;DHT22;1329;51.384;7.122;2022-09-17T13:42:18;15.30;99.90
2639;DHT22;1329;51.384;7.122;2022-09-17T13:45:02;15.40;99.90
2639;DHT22;1329;51.384;7.122;2022-09-17T13:47:39;15.50;99.90
2639;DHT22;1329;51.384;7.122;2022-09-17T13:50:25;15.70;99.90
2639;DHT22;1329;51.384;7.122;2022-09-17T13:53:04;15.70;99.90
2639;DHT22;1329;51.384;7.122;2022-09-17T13:55:37;15.70;99.90
2639;DHT22;1329;51.384;7.122;2022-09-17T13:58:26;15.60;99.90
2639;DHT22;1329;51.384;7.122;2022-09-17T14:01:10;15.50;99.90
2639;DHT22;1329;51.384;7.122;2022-09-17T14:03:55;15.40;99.90
2639;DHT22;1329;51.384;7.122;2022-09-17T14:06:52;15.10;99.90
2639;DHT22;1329;51.384;7.122;2022-09-17T14:12:53;14.40;99.90
2639;DHT22;1329;51.384;7.122;2022-09-17T14:15:59;14.00;99.90
2639;DHT22;1329;51.384;7.122;2022-09-17T14:18:44;13.80;99.90
2639;DHT22;1329;51.384;7.122;2022-09-17T14:22:02;13.70;99.90
2639;DHT22;1329;51.384;7.122;2022-09-17T14:27:55;13.70;99.90
2639;DHT22;1329;51.384;7.122;2022-09-17T14:30:42;13.80;99.90
2639;DHT22;1329;51.384;7.122;2022-09-17T14:33:58;13.90;99.90
2639;DHT22;1329;51.384;7.122;2022-09-17T14:36:45;14.10;99.90
2639;DHT22;1329;51.384;7.122;2022-09-17T14:47:01;14.50;99.90
2639;DHT22;1329;51.384;7.122;2022-09-17T14:49:50;14.60;99.90
2639;DHT22;1329;51.384;7.122;2022-09-17T14:52:40;14.70;99.90
2639;DHT22;1329;51.384;7.122;2022-09-17T14:55:23;14.60;99.90
2639;DHT22;1329;51.384;7.122;2022-09-17T14:58:22;14.70;99.90
2639;DHT22;1329;51.384;7.122;2022-09-17T15:01:19;14.70;99.90
2639;DHT22;1329;51.384;7.122;2022-09-17T15:03:49;14.80;99.90
2639;DHT22;1329;51.384;7.122;2022-09-17T15:06:22;14.90;99.90
2639;DHT22;1329;51.384;7.122;2022-09-17T15:08:56;15.00;99.90
2639;DHT22;1329;51.384;7.122;2022-09-17T15:11:34;15.10;99.90
2639;DHT22;1329;51.384;7.122;2022-09-17T15:14:09;15.10;99.90
2639;DHT22;1329;51.384;7.122;2022-09-17T15:16:52;15.20;99.90
2639;DHT22;1329;51.384;7.122;2022-09-17T15:19:30;15.40;99.90
2639;DHT22;1329;51.384;7.122;2022-09-17T15:22:08;15.40;99.90
2639;DHT22;1329;51.384;7.122;2022-09-17T15:24:42;15.50;99.90
2639;DHT22;1329;51.384;7.122;2022-09-17T15:27:14;15.60;99.90
2639;DHT22;1329;51.384;7.122;2022-09-17T15:29:53;15.70;99.90
2639;DHT22;1329;51.384;7.122;2022-09-17T15:32:28;15.80;99.90
2639;DHT22;1329;51.384;7.122;2022-09-17T15:35:25;15.90;99.90
2639;DHT22;1329;51.384;7.122;2022-09-17T15:38:02;15.90;99.90
2639;DHT22;1329;51.384;7.122;2022-09-17T15:44:19;15.80;99.90
2639;DHT22;1329;51.384;7.122;2022-09-17T15:46:52;15.70;99.90
2639;DHT22;1329;51.384;7.122;2022-09-17T15:49:34;15.60;99.90
2639;DHT22;1329;51.384;7.122;2022-09-17T15:52:27;15.50;99.90
2639;DHT22;1329;51.384;7.122;2022-09-17T15:55:01;15.50;99.90
2639;DHT22;1329;51.384;7.122;2022-09-17T15:57:38;15.40;99.90
2639;DHT22;1329;51.384;7.122;2022-09-17T16:00:29;15.20;99.90
2639;DHT22;1329;51.384;7.122;2022-09-17T16:06:59;14.70;99.90
2639;DHT22;1329;51.384;7.122;2022-09-17T16:09:55;14.40;99.90
2639;DHT22;1329;51.384;7.122;2022-09-17T16:12:35;14.20;99.90
2639;DHT22;1329;51.384;7.122;2022-09-17T16:15:17;14.00;99.90
2639;DHT22;1329;51.384;7.122;2022-09-17T16:18:00;13.80;99.90
2639;DHT22;1329;51.384;7.122;2022-09-17T16:23:34;13.50;99.90
2639;DHT22;1329;51.384;7.122;2022-09-17T16:26:26;13.40;99.90
2639;DHT22;1329;51.384;7.122;2022-09-17T16:29:09;13.30;99.90
2639;DHT22;1329;51.384;7.122;2022-09-17T16:31:48;13.20;99.90
2639;DHT22;1329;51.384;7.122;2022-09-17T16:34:36;13.20;99.90
2639;DHT22;1329;51.384;7.122;2022-09-17T16:37:23;13.20;99.90
2639;DHT22;1329;51.384;7.122;2022-09-17T16:39:57;13.20;99.90
2639;DHT22;1329;51.384;7.122;2022-09-17T16:42:56;13.10;99.90
2639;DHT22;1329;51.384;7.122;2022-09-17T16:45:57;13.20;99.90
2639;DHT22;1329;51.384;7.122;2022-09-17T16:48:33;13.20;99.90
2639;DHT22;1329;51.384;7.122;2022-09-17T16:51:22;13.20;99.90
2639;DHT22;1329;51.384;7.122;2022-09-17T16:53:54;13.30;99.90
2639;DHT22;1329;51.384;7.122;2022-09-17T16:56:33;13.30;99.90
2639;DHT22;1329;51.384;7.122;2022-09-17T16:59:18;13.50;99.90
2639;DHT22;1329;51.384;7.122;2022-09-17T17:02:03;13.50;99.90
2639;DHT22;1329;51.384;7.122;2022-09-17T17:04:53;13.70;99.90
2639;DHT22;1329;51.384;7.122;2022-09-17T17:11:08;13.80;99.90
2639;DHT22;1329;51.384;7.122;2022-09-17T17:13:46;13.80;99.90
2639;DHT22;1329;51.384;7.122;2022-09-17T17:16:33;13.80;99.90
2639;DHT22;1329;51.384;7.122;2022-09-17T17:19:18;13.80;99.90
2639;DHT22;1329;51.384;7.122;2022-09-17T17:22:09;13.90;99.90
2639;DHT22;1329;51.384;7.122;2022-09-17T17:24:44;13.90;99.90
2639;DHT22;1329;51.384;7.122;2022-09-17T17:27:21;13.80;99.90
2639;DHT22;1329;51.384;7.122;2022-09-17T17:29:54;13.80;99.90
2639;DHT22;1329;51.384;7.122;2022-09-17T17:32:30;13.70;99.90
2639;DHT22;1329;51.384;7.122;2022-09-17T17:35:22;13.70;99.90
2639;DHT22;1329;51.384;7.122;2022-09-17T17:37:56;13.60;99.90
2639;DHT22;1329;51.384;7.122;2022-09-17T17:40:36;13.50;99.90
2639;DHT22;1329;51.384;7.122;2022-09-17T17:43:38;13.40;99.90
2639;DHT22;1329;51.384;7.122;2022-09-17T17:46:16;13.40;99.90
2639;DHT22;1329;51.384;7.122;2022-09-17T17:48:55;13.30;99.90
2639;DHT22;1329;51.384;7.122;2022-09-17T17:51:43;13.30;99.90
2639;DHT22;1329;51.384;7.122;2022-09-17T17:54:26;13.30;99.90
2639;DHT22;1329;51.384;7.122;2022-09-17T17:57:22;13.20;99.90
2639;DHT22;1329;51.384;7.122;2022-09-17T18:00:01;13.20;99.90
2639;DHT22;1329;51.384;7.122;2022-09-17T18:02:51;13.20;99.90
2639;DHT22;1329;51.384;7.122;2022-09-17T18:05:32;13.10;99.90
2639;DHT22;1329;51.384;7.122;2022-09-17T18:08:23;13.10;99.90
2639;DHT22;1329;51.384;7.122;2022-09-17T18:11:16;13.10;99.90
2639;DHT22;1329;51.384;7.122;2022-09-17T18:14:01;13.10;99.90
2639;DHT22;1329;51.384;7.122;2022-09-17T18:16:43;13.10;99.90
2639;DHT22;1329;51.384;7.122;2022-09-17T18:19:20;13.10;99.90
2639;DHT22;1329;51.384;7.122;2022-09-17T18:22:03;13.00;99.90
2639;DHT22;1329;51.384;7.122;2022-09-17T18:24:37;13.00;99.90
2639;DHT22;1329;51.384;7.122;2022-09-17T18:27:25;13.10;99.90
2639;DHT22;1329;51.384;7.122;2022-09-17T18:30:01;13.10;99.90
2639;DHT22;1329;51.384;7.122;2022-09-17T18:32:38;13.10;99.90
2639;DHT22;1329;51.384;7.122;2022-09-17T18:35:09;13.10;99.90
2639;DHT22;1329;51.384;7.122;2022-09-17T18:37:55;13.10;99.90
2639;DHT22;1329;51.384;7.122;2022-09-17T18:40:24;13.10;99.90
2639;DHT22;1329;51.384;7.122;2022-09-17T18:43:09;13.10;99.90
2639;DHT22;1329;51.384;7.122;2022-09-17T18:45:51;13.10;99.90
2639;DHT22;1329;51.384;7.122;2022-09-17T18:48:25;13.10;99.90
2639;DHT22;1329;51.384;7.122;2022-09-17T18:50:56;13.20;99.90
2639;DHT22;1329;51.384;7.122;2022-09-17T18:53:34;13.10;99.90
2639;DHT22;1329;51.384;7.122;2022-09-17T18:56:16;13.20;99.90
2639;DHT22;1329;51.384;7.122;2022-09-17T18:58:59;13.10;99.90
2639;DHT22;1329;51.384;7.122;2022-09-17T19:01:30;13.10;99.90
2639;DHT22;1329;51.384;7.122;2022-09-17T19:04:09;13.10;99.90
2639;DHT22;1329;51.384;7.122;2022-09-17T19:06:41;13.20;99.90
2639;DHT22;1329;51.384;7.122;2022-09-17T19:09:20;13.20;99.90
2639;DHT22;1329;51.384;7.122;2022-09-17T19:11:53;13.20;99.90
2639;DHT22;1329;51.384;7.122;2022-09-17T19:14:21;13.20;99.90
2639;DHT22;1329;51.384;7.122;2022-09-17T19:17:05;13.20;99.90
2639;DHT22;1329;51.384;7.122;2022-09-17T19:19:42;13.20;99.90
2639;DHT22;1329;51.384;7.122;2022-09-17T19:22:10;13.20;99.90
2639;DHT22;1329;51.384;7.122;2022-09-17T19:24:44;13.20;99.90
2639;DHT22;1329;51.384;7.122;2022-09-17T19:27:39;13.20;99.90
2639;DHT22;1329;51.384;7.122;2022-09-17T19:30:07;13.20;99.90
2639;DHT22;1329;51.384;7.122;2022-09-17T19:32:46;13.10;99.90
2639;DHT22;1329;51.384;7.122;2022-09-17T19:35:22;13.10;99.90
2639;DHT22;1329;51.384;7.122;2022-09-17T19:38:09;13.10;99.90
2639;DHT22;1329;51.384;7.122;2022-09-17T19:40:59;13.10;99.90
2639;DHT22;1329;51.384;7.122;2022-09-17T19:43:31;13.10;99.90
2639;DHT22;1329;51.384;7.122;2022-09-17T19:46:17;13.10;99.90
2639;DHT22;1329;51.384;7.122;2022-09-17T19:48:54;13.10;99.90
2639;DHT22;1329;51.384;7.122;2022-09-17T19:51:32;13.10;99.90
2639;DHT22;1329;51.384;7.122;2022-09-17T19:54:09;13.10;99.90
2639;DHT22;1329;51.384;7.122;2022-09-17T19:56:49;13.10;99.90
2639;DHT22;1329;51.384;7.122;2022-09-17T19:59:19;13.20;99.90
2639;DHT22;1329;51.384;7.122;2022-09-17T20:02:01;13.10;99.90
2639;DHT22;1329;51.384;7.122;2022-09-17T20:04:30;13.10;99.90
2639;DHT22;1329;51.384;7.122;2022-09-17T20:07:00;13.10;99.90
2639;DHT22;1329;51.384;7.122;2022-09-17T20:09:29;13.10;99.90
2639;DHT22;1329;51.384;7.122;2022-09-17T20:12:05;13.10;99.90
2639;DHT22;1329;51.384;7.122;2022-09-17T20:14:35;13.20;99.90
2639;DHT22;1329;51.384;7.122;2022-09-17T20:17:11;13.20;99.90